sensor_id;sensor_type;location;lat;lon;timestamp;temperature;humidity
18880;DHT22;9572;52.378;13.404;2024-01-06T00:02:24;1.80;99.90
18880;DHT22;9572;52.378;13.404;2024-01-06T00:04:51;1.80;99.90
18880;DHT22;9572;52.378;13.404;2024-01-06T00:07:18;1.80;99.90
18880;DHT22;9572;52.378;13.404;2024-01-06T00:09:45;1.70;99.90
18880;DHT22;9572;52.378;13.404;2024-01-06T00:12:12;1.70;99.90
18880;DHT22;9572;52.378;13.404;2024-01-06T00:14:40;1.80;99.90
18880;DHT22;9572;52.378;13.404;2024-01-06T00:17:10;1.80;99.90
18880;DHT22;9572;52.378;13.404;2024-01-06T00:19:37;1.70;99.90
18880;DHT22;9572;52.378;13.404;2024-01-06T00:22:04;1.70;99.90
18880;DHT22;9572;52.378;13.404;2024-01-06T00:24:31;1.70;99.90
18880;DHT22;9572;52.378;13.404;2024-01-06T00:26:58;1.70;99.90
18880;DHT22;9572;52.378;13.404;2024-01-06T00:29:25;1.70;99.90
18880;DHT22;9572;52.378;13.404;2024-01-06T00:31:53;1.70;99.90
18880;DHT22;9572;52.378;13.404;2024-01-06T00:34:20;1.70;99.90
18880;DHT22;9572;52.378;13.404;2024-01-06T00:36:47;1.70;99.90
18880;DHT22;9572;52.378;13.404;2024-01-06T00:39:14;1.70;99.90
18880;DHT22;9572;52.378;13.404;2024-01-06T00:41:41;1.60;99.90
18880;DHT22;9572;52.378;13.404;2024-01-06T00:44:08;1.70;99.90
18880;DHT22;9572;52.378;13.404;2024-01-06T00:46:35;1.70;99.90
18880;DHT22;9572;52.378;13.404;2024-01-06T00:49:03;1.70;99.90
18880;DHT22;9572;52.378;13.404;2024-01-06T00:51:30;1.70;99.90
18880;DHT22;9572;52.378;13.404;2024-01-06T00:53:57;1.70;99.90
18880;DHT22;9572;52.378;13.404;2024-01-06T00:56:24;1.70;99.90
18880;DHT22;9572;52.378;13.404;2024-01-06T00:58:52;1.70;99.90
18880;DHT22;9572;52.378;13.404;2024-01-06T01:01:19;1.70;99.90
18880;DHT22;9572;52.378;13.404;2024-01-06T01:03:46;1.70;99.90
18880;DHT22;9572;52.378;13.404;2024-01-06T01:06:15;1.70;99.90
18880;DHT22;9572;52.378;13.404;2024-01-06T01:08:41;1.80;99.90
18880;DHT22;9572;52.378;13.404;2024-01-06T01:11:08;1.80;99.90
18880;DHT22;9572;52.378;13.404;2024-01-06T01:13:35;1.80;99.90
18880;DHT22;9572;52.378;13.404;2024-01-06T01:16:02;1.70;99.90
18880;DHT22;9572;52.378;13.404;2024-01-06T01:18:29;1.70;99.90
18880;DHT22;9572;52.378;13.404;2024-01-06T01:20:56;1.60;99.90
18880;DHT22;9572;52.378;13.404;2024-01-06T01:23:25;1.60;99.90
18880;DHT22;9572;52.378;13.404;2024-01-06T01:25:52;1.70;99.90
18880;DHT22;9572;52.378;13.404;2024-01-06T01:28:18;1.70;99.90
18880;DHT22;9572;52.378;13.404;2024-01-06T01:30:45;1.80;99.90
18880;DHT22;9572;52.378;13.404;2024-01-06T01:33:12;1.80;99.90
18880;DHT22;9572;52.378;13.404;2024-01-06T01:35:39;1.60;99.90
18880;DHT22;9572;52.378;13.404;2024-01-06T01:38:07;1.60;99.90
18880;DHT22;9572;52.378;13.404;2024-01-06T01:40:35;1.60;99.90
18880;DHT22;9572;52.378;13.404;2024-01-06T01:43:02;1.60;99.90
18880;DHT22;9572;52.378;13.404;2024-01-06T01:45:29;1.60;99.90
18880;DHT22;9572;52.378;13.404;2024-01-06T01:47:55;1.50;99.90
18880;DHT22;9572;52.378;13.404;2024-01-06T01:50:22;1.50;99.90
18880;DHT22;9572;52.378;13.404;2024-01-06T01:52:53;1.60;99.90
18880;DHT22;9572;52.378;13.404;2024-01-06T01:55:20;1.50;99.90
18880;DHT22;9572;52.378;13.404;2024-01-06T01:57:49;1.50;99.90
18880;DHT22;9572;52.378;13.404;2024-01-06T02:00:16;1.50;99.90
18880;DHT22;9572;52.378;13.404;2024-01-06T02:02:43;1.50;99.90
18880;DHT22;9572;52.378;13.404;2024-01-06T02:05:09;1.50;99.90
18880;DHT22;9572;52.378;13.404;2024-01-06T02:07:36;1.60;99.90
18880;DHT22;9572;52.378;13.404;2024-01-06T02:10:04;1.50;99.90
18880;DHT22;9572;52.378;13.404;2024-01-06T02:12:31;1.50;99.90
18880;DHT22;9572;52.378;13.404;2024-01-06T02:15:00;1.50;99.90
18880;DHT22;9572;52.378;13.404;2024-01-06T02:17:26;1.50;99.90
18880;DHT22;9572;52.378;13.404;2024-01-06T02:19:53;1.40;99.90
18880;DHT22;9572;52.378;13.404;2024-01-06T02:22:23;1.40;99.90
18880;DHT22;9572;52.378;13.404;2024-01-06T02:24:50;1.40;99.90
18880;DHT22;9572;52.378;13.404;2024-01-06T02:27:17;1.40;99.90
18880;DHT22;9572;52.378;13.404;2024-01-06T02:29:43;1.40;99.90
18880;DHT22;9572;52.378;13.404;2024-01-06T02:32:10;1.40;99.90
18880;DHT22;9572;52.378;13.404;2024-01-06T02:34:37;1.40;99.90
18880;DHT22;9572;52.378;13.404;2024-01-06T02:37:04;1.40;99.90
18880;DHT22;9572;52.378;13.404;2024-01-06T02:39:33;1.40;99.90
18880;DHT22;9572;52.378;13.404;2024-01-06T02:41:59;1.40;99.90
18880;DHT22;9572;52.378;13.404;2024-01-06T02:44:26;1.40;99.90
18880;DHT22;9572;52.378;13.404;2024-01-06T02:46:53;1.40;99.90
18880;DHT22;9572;52.378;13.404;2024-01-06T02:49:21;1.40;99.90
18880;DHT22;9572;52.378;13.404;2024-01-06T02:51:47;1.30;99.90
18880;DHT22;9572;52.378;13.404;2024-01-06T02:54:14;1.30;99.90
18880;DHT22;9572;52.378;13.404;2024-01-06T02:56:42;1.40;99.90
18880;DHT22;9572;52.378;13.404;2024-01-06T02:59:09;1.40;99.90
18880;DHT22;9572;52.378;13.404;2024-01-06T03:01:36;1.40;99.90
18880;DHT22;9572;52.378;13.404;2024-01-06T03:04:03;1.50;99.90
18880;DHT22;9572;52.378;13.404;2024-01-06T03:06:29;1.50;99.90
18880;DHT22;9572;52.378;13.404;2024-01-06T03:08:56;1.50;99.90
18880;DHT22;9572;52.378;13.404;2024-01-06T03:11:23;1.40;99.90
18880;DHT22;9572;52.378;13.404;2024-01-06T03:13:51;1.40;99.90
18880;DHT22;9572;52.378;13.404;2024-01-06T03:16:18;1.30;99.90
18880;DHT22;9572;52.378;13.404;2024-01-06T03:18:45;1.40;99.90
18880;DHT22;9572;52.378;13.404;2024-01-06T03:21:18;1.40;99.90
18880;DHT22;9572;52.378;13.404;2024-01-06T03:23:45;1.40;99.90
18880;DHT22;9572;52.378;13.404;2024-01-06T03:26:12;1.30;99.90
18880;DHT22;9572;52.378;13.404;2024-01-06T03:28:39;1.30;99.90
18880;DHT22;9572;52.378;13.404;2024-01-06T03:31:07;1.30;99.90
18880;DHT22;9572;52.378;13.404;2024-01-06T03:33:34;1.30;99.90
18880;DHT22;9572;52.378;13.404;2024-01-06T03:36:04;1.40;99.90
18880;DHT22;9572;52.378;13.404;2024-01-06T03:38:32;1.40;99.90
18880;DHT22;9572;52.378;13.404;2024-01-06T03:40:59;1.30;99.90
18880;DHT22;9572;52.378;13.404;2024-01-06T03:43:26;1.30;99.90
18880;DHT22;9572;52.378;13.404;2024-01-06T03:45:53;1.40;99.90
18880;DHT22;9572;52.378;13.404;2024-01-06T03:48:22;1.40;99.90
18880;DHT22;9572;52.378;13.404;2024-01-06T03:50:49;1.40;99.90
18880;DHT22;9572;52.378;13.404;2024-01-06T03:53:16;1.40;99.90
18880;DHT22;9572;52.378;13.404;2024-01-06T03:55:43;1.40;99.90
18880;DHT22;9572;52.378;13.404;2024-01-06T03:58:09;1.40;99.90
18880;DHT22;9572;52.378;13.404;2024-01-06T04:00:35;1.30;99.90
18880;DHT22;9572;52.378;13.404;2024-01-06T04:03:03;1.40;99.90
18880;DHT22;9572;52.378;13.404;2024-01-06T04:05:32;1.40;99.90
18880;DHT22;9572;52.378;13.404;2024-01-06T04:07:59;1.40;99.90
18880;DHT22;9572;52.378;13.404;2024-01-06T04:10:26;1.40;99.90
18880;DHT22;9572;52.378;13.404;2024-01-06T04:12:53;1.40;99.90
18880;DHT22;9572;52.378;13.404;2024-01-06T04:15:20;1.30;99.90
18880;DHT22;9572;52.378;13.404;2024-01-06T04:17:48;1.40;99.90
18880;DHT22;9572;52.378;13.404;2024-01-06T04:20:15;1.50;99.90
18880;DHT22;9572;52.378;13.404;2024-01-06T04:22:43;1.50;99.90
18880;DHT22;9572;52.378;13.404;2024-01-06T04:25:11;1.40;99.90
18880;DHT22;9572;52.378;13.404;2024-01-06T04:27:38;1.40;99.90
18880;DHT22;9572;52.378;13.404;2024-01-06T04:30:05;1.40;99.90
18880;DHT22;9572;52.378;13.404;2024-01-06T04:32:32;1.30;99.90
18880;DHT22;9572;52.378;13.404;2024-01-06T04:34:59;1.40;99.90
18880;DHT22;9572;52.378;13.404;2024-01-06T04:37:26;1.40;99.90
18880;DHT22;9572;52.378;13.404;2024-01-06T04:39:54;1.50;99.90
18880;DHT22;9572;52.378;13.404;2024-01-06T04:42:21;1.40;99.90
18880;DHT22;9572;52.378;13.404;2024-01-06T04:44:49;1.30;99.90
18880;DHT22;9572;52.378;13.404;2024-01-06T04:47:16;1.30;99.90
18880;DHT22;9572;52.378;13.404;2024-01-06T04:49:43;1.30;99.90
18880;DHT22;9572;52.378;13.404;2024-01-06T04:52:10;1.30;99.90
18880;DHT22;9572;52.378;13.404;2024-01-06T04:54:37;1.20;99.90
18880;DHT22;9572;52.378;13.404;2024-01-06T04:57:05;1.20;99.90
18880;DHT22;9572;52.378;13.404;2024-01-06T04:59:32;1.20;99.90
18880;DHT22;9572;52.378;13.404;2024-01-06T05:01:59;1.30;99.90
18880;DHT22;9572;52.378;13.404;2024-01-06T05:04:26;1.30;99.90
18880;DHT22;9572;52.378;13.404;2024-01-06T05:06:54;1.30;99.90
18880;DHT22;9572;52.378;13.404;2024-01-06T05:09:20;1.30;99.90
18880;DHT22;9572;52.378;13.404;2024-01-06T05:11:47;1.20;99.90
18880;DHT22;9572;52.378;13.404;2024-01-06T05:14:16;1.20;99.90
18880;DHT22;9572;52.378;13.404;2024-01-06T05:16:42;1.20;99.90
18880;DHT22;9572;52.378;13.404;2024-01-06T05:19:09;1.20;99.90
18880;DHT22;9572;52.378;13.404;2024-01-06T05:21:36;1.20;99.90
18880;DHT22;9572;52.378;13.404;2024-01-06T05:24:04;1.40;99.90
18880;DHT22;9572;52.378;13.404;2024-01-06T05:26:31;1.40;99.90
18880;DHT22;9572;52.378;13.404;2024-01-06T05:28:58;1.30;99.90
18880;DHT22;9572;52.378;13.404;2024-01-06T05:31:26;1.40;99.90
18880;DHT22;9572;52.378;13.404;2024-01-06T05:33:53;1.40;99.90
18880;DHT22;9572;52.378;13.404;2024-01-06T05:36:20;1.40;99.90
18880;DHT22;9572;52.378;13.404;2024-01-06T05:38:46;1.30;99.90
18880;DHT22;9572;52.378;13.404;2024-01-06T05:41:12;1.40;99.90
18880;DHT22;9572;52.378;13.404;2024-01-06T05:43:39;1.30;99.90
18880;DHT22;9572;52.378;13.404;2024-01-06T05:46:07;1.30;99.90
18880;DHT22;9572;52.378;13.404;2024-01-06T05:48:37;1.30;99.90
18880;DHT22;9572;52.378;13.404;2024-01-06T05:51:06;1.20;99.90
18880;DHT22;9572;52.378;13.404;2024-01-06T05:53:32;1.30;99.90
18880;DHT22;9572;52.378;13.404;2024-01-06T05:55:59;1.30;99.90
18880;DHT22;9572;52.378;13.404;2024-01-06T05:58:26;1.40;99.90
18880;DHT22;9572;52.378;13.404;2024-01-06T06:00:53;1.40;99.90
18880;DHT22;9572;52.378;13.404;2024-01-06T06:03:20;1.40;99.90
18880;DHT22;9572;52.378;13.404;2024-01-06T06:05:48;1.30;99.90
18880;DHT22;9572;52.378;13.404;2024-01-06T06:08:15;1.30;99.90
18880;DHT22;9572;52.378;13.404;2024-01-06T06:10:42;1.30;99.90
18880;DHT22;9572;52.378;13.404;2024-01-06T06:13:25;1.30;99.90
18880;DHT22;9572;52.378;13.404;2024-01-06T06:15:52;1.30;99.90
18880;DHT22;9572;52.378;13.404;2024-01-06T06:18:19;1.30;99.90
18880;DHT22;9572;52.378;13.404;2024-01-06T06:20:45;1.30;99.90
18880;DHT22;9572;52.378;13.404;2024-01-06T06:23:14;1.30;99.90
18880;DHT22;9572;52.378;13.404;2024-01-06T06:25:41;1.40;99.90
18880;DHT22;9572;52.378;13.404;2024-01-06T06:28:08;1.30;99.90
18880;DHT22;9572;52.378;13.404;2024-01-06T06:30:35;1.30;99.90
18880;DHT22;9572;52.378;13.404;2024-01-06T06:33:02;1.30;99.90
18880;DHT22;9572;52.378;13.404;2024-01-06T06:35:29;1.30;99.90
18880;DHT22;9572;52.378;13.404;2024-01-06T06:37:56;1.30;99.90
18880;DHT22;9572;52.378;13.404;2024-01-06T06:40:24;1.20;99.90
18880;DHT22;9572;52.378;13.404;2024-01-06T06:42:51;1.20;99.90
18880;DHT22;9572;52.378;13.404;2024-01-06T06:45:18;1.20;99.90
18880;DHT22;9572;52.378;13.404;2024-01-06T06:47:48;1.20;99.90
18880;DHT22;9572;52.378;13.404;2024-01-06T06:50:15;1.20;99.90
18880;DHT22;9572;52.378;13.404;2024-01-06T06:52:42;1.20;99.90
18880;DHT22;9572;52.378;13.404;2024-01-06T06:55:09;1.30;99.90
18880;DHT22;9572;52.378;13.404;2024-01-06T06:57:37;1.20;99.90
18880;DHT22;9572;52.378;13.404;2024-01-06T07:00:05;1.20;99.90
18880;DHT22;9572;52.378;13.404;2024-01-06T07:02:33;1.30;99.90
18880;DHT22;9572;52.378;13.404;2024-01-06T07:05:00;1.30;99.90
18880;DHT22;9572;52.378;13.404;2024-01-06T07:07:32;1.30;99.90
18880;DHT22;9572;52.378;13.404;2024-01-06T07:10:00;1.20;99.90
18880;DHT22;9572;52.378;13.404;2024-01-06T07:12:27;1.20;99.90
18880;DHT22;9572;52.378;13.404;2024-01-06T07:14:55;1.30;99.90
18880;DHT22;9572;52.378;13.404;2024-01-06T07:17:23;1.30;99.90
18880;DHT22;9572;52.378;13.404;2024-01-06T07:19:50;1.20;99.90
18880;DHT22;9572;52.378;13.404;2024-01-06T07:22:17;1.30;99.90
18880;DHT22;9572;52.378;13.404;2024-01-06T07:24:44;1.30;99.90
18880;DHT22;9572;52.378;13.404;2024-01-06T07:27:11;1.30;99.90
18880;DHT22;9572;52.378;13.404;2024-01-06T07:29:38;1.20;99.90
18880;DHT22;9572;52.378;13.404;2024-01-06T07:32:07;1.20;99.90
18880;DHT22;9572;52.378;13.404;2024-01-06T07:34:34;1.20;99.90
18880;DHT22;9572;52.378;13.404;2024-01-06T07:37:00;1.20;99.90
18880;DHT22;9572;52.378;13.404;2024-01-06T07:39:27;1.10;99.90
18880;DHT22;9572;52.378;13.404;2024-01-06T07:41:54;1.20;99.90
18880;DHT22;9572;52.378;13.404;2024-01-06T07:44:21;1.20;99.90
18880;DHT22;9572;52.378;13.404;2024-01-06T07:46:50;1.30;99.90
18880;DHT22;9572;52.378;13.404;2024-01-06T07:49:18;1.20;99.90
18880;DHT22;9572;52.378;13.404;2024-01-06T07:51:46;1.20;99.90
18880;DHT22;9572;52.378;13.404;2024-01-06T07:54:12;1.20;99.90
18880;DHT22;9572;52.378;13.404;2024-01-06T07:56:39;1.10;99.90
18880;DHT22;9572;52.378;13.404;2024-01-06T07:59:07;1.20;99.90
18880;DHT22;9572;52.378;13.404;2024-01-06T08:01:33;1.10;99.90
18880;DHT22;9572;52.378;13.404;2024-01-06T08:04:00;1.10;99.90
18880;DHT22;9572;52.378;13.404;2024-01-06T08:06:28;1.10;99.90
18880;DHT22;9572;52.378;13.404;2024-01-06T08:08:55;1.10;99.90
18880;DHT22;9572;52.378;13.404;2024-01-06T08:11:22;1.10;99.90
18880;DHT22;9572;52.378;13.404;2024-01-06T08:13:49;1.10;99.90
18880;DHT22;9572;52.378;13.404;2024-01-06T08:16:16;1.10;99.90
18880;DHT22;9572;52.378;13.404;2024-01-06T08:18:43;1.10;99.90
18880;DHT22;9572;52.378;13.404;2024-01-06T08:21:11;1.10;99.90
18880;DHT22;9572;52.378;13.404;2024-01-06T08:23:39;1.10;99.90
18880;DHT22;9572;52.378;13.404;2024-01-06T08:26:06;1.10;99.90
18880;DHT22;9572;52.378;13.404;2024-01-06T08:28:33;1.10;99.90
18880;DHT22;9572;52.378;13.404;2024-01-06T08:31:00;1.00;99.90
18880;DHT22;9572;52.378;13.404;2024-01-06T08:33:26;1.10;99.90
18880;DHT22;9572;52.378;13.404;2024-01-06T08:35:53;1.10;99.90
18880;DHT22;9572;52.378;13.404;2024-01-06T08:38:20;1.10;99.90
18880;DHT22;9572;52.378;13.404;2024-01-06T08:40:49;1.10;99.90
18880;DHT22;9572;52.378;13.404;2024-01-06T08:43:17;1.00;99.90
18880;DHT22;9572;52.378;13.404;2024-01-06T08:45:44;0.90;99.90
18880;DHT22;9572;52.378;13.404;2024-01-06T08:48:11;0.90;99.90
18880;DHT22;9572;52.378;13.404;2024-01-06T08:50:39;0.90;99.90
18880;DHT22;9572;52.378;13.404;2024-01-06T08:53:05;1.00;99.90
18880;DHT22;9572;52.378;13.404;2024-01-06T08:55:32;0.90;99.90
18880;DHT22;9572;52.378;13.404;2024-01-06T08:58:01;0.80;99.90
18880;DHT22;9572;52.378;13.404;2024-01-06T09:00:28;0.90;99.90
18880;DHT22;9572;52.378;13.404;2024-01-06T09:02:55;0.80;99.90
18880;DHT22;9572;52.378;13.404;2024-01-06T09:05:21;0.90;99.90
18880;DHT22;9572;52.378;13.404;2024-01-06T09:07:48;0.90;99.90
18880;DHT22;9572;52.378;13.404;2024-01-06T09:10:16;0.90;99.90
18880;DHT22;9572;52.378;13.404;2024-01-06T09:12:42;0.90;99.90
18880;DHT22;9572;52.378;13.404;2024-01-06T09:15:11;0.80;99.90
18880;DHT22;9572;52.378;13.404;2024-01-06T09:17:38;0.90;99.90
18880;DHT22;9572;52.378;13.404;2024-01-06T09:20:06;0.80;99.90
18880;DHT22;9572;52.378;13.404;2024-01-06T09:22:33;0.80;99.90
18880;DHT22;9572;52.378;13.404;2024-01-06T09:25:00;0.90;99.90
18880;DHT22;9572;52.378;13.404;2024-01-06T09:27:27;0.90;99.90
18880;DHT22;9572;52.378;13.404;2024-01-06T09:29:54;0.80;99.90
18880;DHT22;9572;52.378;13.404;2024-01-06T09:32:22;0.80;99.90
18880;DHT22;9572;52.378;13.404;2024-01-06T09:34:49;0.80;99.90
18880;DHT22;9572;52.378;13.404;2024-01-06T09:37:16;0.80;99.90
18880;DHT22;9572;52.378;13.404;2024-01-06T09:39:43;0.80;99.90
18880;DHT22;9572;52.378;13.404;2024-01-06T09:42:10;0.90;99.90
18880;DHT22;9572;52.378;13.404;2024-01-06T09:44:37;0.80;99.90
18880;DHT22;9572;52.378;13.404;2024-01-06T09:47:04;0.90;99.90
18880;DHT22;9572;52.378;13.404;2024-01-06T09:49:34;0.90;99.90
18880;DHT22;9572;52.378;13.404;2024-01-06T09:52:07;0.90;99.90
18880;DHT22;9572;52.378;13.404;2024-01-06T09:54:39;0.80;99.90
18880;DHT22;9572;52.378;13.404;2024-01-06T09:57:08;0.80;99.90
18880;DHT22;9572;52.378;13.404;2024-01-06T09:59:34;0.80;99.90
18880;DHT22;9572;52.378;13.404;2024-01-06T10:02:04;0.80;99.90
18880;DHT22;9572;52.378;13.404;2024-01-06T10:04:31;0.80;99.90
18880;DHT22;9572;52.378;13.404;2024-01-06T10:06:59;0.80;99.90
18880;DHT22;9572;52.378;13.404;2024-01-06T10:09:27;0.80;99.90
18880;DHT22;9572;52.378;13.404;2024-01-06T10:11:55;0.70;99.90
18880;DHT22;9572;52.378;13.404;2024-01-06T10:14:23;0.70;99.90
18880;DHT22;9572;52.378;13.404;2024-01-06T10:16:51;0.80;99.90
18880;DHT22;9572;52.378;13.404;2024-01-06T10:19:17;0.80;99.90
18880;DHT22;9572;52.378;13.404;2024-01-06T10:21:45;0.70;99.90
18880;DHT22;9572;52.378;13.404;2024-01-06T10:24:13;0.60;99.90
18880;DHT22;9572;52.378;13.404;2024-01-06T10:26:40;0.60;99.90
18880;DHT22;9572;52.378;13.404;2024-01-06T10:29:07;0.60;99.90
18880;DHT22;9572;52.378;13.404;2024-01-06T10:31:34;0.60;99.90
18880;DHT22;9572;52.378;13.404;2024-01-06T10:34:01;0.70;99.90
18880;DHT22;9572;52.378;13.404;2024-01-06T10:36:28;0.60;99.90
18880;DHT22;9572;52.378;13.404;2024-01-06T10:38:57;0.60;99.90
18880;DHT22;9572;52.378;13.404;2024-01-06T10:41:26;0.60;99.90
18880;DHT22;9572;52.378;13.404;2024-01-06T10:43:54;0.70;99.90
18880;DHT22;9572;52.378;13.404;2024-01-06T10:46:22;0.60;99.90
18880;DHT22;9572;52.378;13.404;2024-01-06T10:48:51;0.60;99.90
18880;DHT22;9572;52.378;13.404;2024-01-06T10:51:19;0.60;99.90
18880;DHT22;9572;52.378;13.404;2024-01-06T10:53:48;0.50;99.90
18880;DHT22;9572;52.378;13.404;2024-01-06T10:56:17;0.50;99.90
18880;DHT22;9572;52.378;13.404;2024-01-06T10:58:47;0.50;99.90
18880;DHT22;9572;52.378;13.404;2024-01-06T11:01:21;0.50;99.90
18880;DHT22;9572;52.378;13.404;2024-01-06T11:03:50;0.50;99.90
18880;DHT22;9572;52.378;13.404;2024-01-06T11:06:17;0.50;99.90
18880;DHT22;9572;52.378;13.404;2024-01-06T11:08:50;0.50;99.90
18880;DHT22;9572;52.378;13.404;2024-01-06T11:11:18;0.50;99.90
18880;DHT22;9572;52.378;13.404;2024-01-06T11:13:47;0.40;99.90
18880;DHT22;9572;52.378;13.404;2024-01-06T11:16:35;0.40;99.90
18880;DHT22;9572;52.378;13.404;2024-01-06T11:19:03;0.40;99.90
18880;DHT22;9572;52.378;13.404;2024-01-06T11:21:33;0.40;99.90
18880;DHT22;9572;52.378;13.404;2024-01-06T11:24:18;0.40;99.90
18880;DHT22;9572;52.378;13.404;2024-01-06T11:26:50;0.40;99.90
18880;DHT22;9572;52.378;13.404;2024-01-06T11:29:19;0.40;99.90
18880;DHT22;9572;52.378;13.404;2024-01-06T11:32:25;0.40;99.90
18880;DHT22;9572;52.378;13.404;2024-01-06T11:34:53;0.40;99.90
18880;DHT22;9572;52.378;13.404;2024-01-06T11:37:25;0.40;99.90
18880;DHT22;9572;52.378;13.404;2024-01-06T11:39:52;0.40;99.90
18880;DHT22;9572;52.378;13.404;2024-01-06T11:42:19;0.40;99.90
18880;DHT22;9572;52.378;13.404;2024-01-06T11:44:51;0.50;99.90
18880;DHT22;9572;52.378;13.404;2024-01-06T11:47:18;0.40;99.90
18880;DHT22;9572;52.378;13.404;2024-01-06T11:49:54;0.40;99.90
18880;DHT22;9572;52.378;13.404;2024-01-06T11:52:24;0.40;99.90
18880;DHT22;9572;52.378;13.404;2024-01-06T11:54:52;0.30;99.90
18880;DHT22;9572;52.378;13.404;2024-01-06T11:57:20;0.40;99.90
18880;DHT22;9572;52.378;13.404;2024-01-06T11:59:48;0.40;99.90
18880;DHT22;9572;52.378;13.404;2024-01-06T12:02:19;0.50;99.90
18880;DHT22;9572;52.378;13.404;2024-01-06T12:04:48;0.40;99.90
18880;DHT22;9572;52.378;13.404;2024-01-06T12:07:16;0.40;99.90
18880;DHT22;9572;52.378;13.404;2024-01-06T12:09:43;0.40;99.90
18880;DHT22;9572;52.378;13.404;2024-01-06T12:12:10;0.50;99.90
18880;DHT22;9572;52.378;13.404;2024-01-06T12:14:41;0.50;99.90
18880;DHT22;9572;52.378;13.404;2024-01-06T12:17:08;0.50;99.90
18880;DHT22;9572;52.378;13.404;2024-01-06T12:19:37;0.50;99.90
18880;DHT22;9572;52.378;13.404;2024-01-06T12:22:05;0.40;99.90
18880;DHT22;9572;52.378;13.404;2024-01-06T12:24:32;0.40;99.90
18880;DHT22;9572;52.378;13.404;2024-01-06T12:26:59;0.40;99.90
18880;DHT22;9572;52.378;13.404;2024-01-06T12:29:26;0.40;99.90
18880;DHT22;9572;52.378;13.404;2024-01-06T12:31:54;0.50;99.90
18880;DHT22;9572;52.378;13.404;2024-01-06T12:34:21;0.50;99.90
18880;DHT22;9572;52.378;13.404;2024-01-06T12:36:52;0.50;99.90
18880;DHT22;9572;52.378;13.404;2024-01-06T12:39:20;0.50;99.90
18880;DHT22;9572;52.378;13.404;2024-01-06T12:41:49;0.40;99.90
18880;DHT22;9572;52.378;13.404;2024-01-06T12:44:16;0.40;99.90
18880;DHT22;9572;52.378;13.404;2024-01-06T12:46:43;0.40;99.90
18880;DHT22;9572;52.378;13.404;2024-01-06T12:49:10;0.40;99.90
18880;DHT22;9572;52.378;13.404;2024-01-06T12:51:37;0.30;99.90
18880;DHT22;9572;52.378;13.404;2024-01-06T12:54:05;0.30;99.90
18880;DHT22;9572;52.378;13.404;2024-01-06T12:56:32;0.30;99.90
18880;DHT22;9572;52.378;13.404;2024-01-06T12:58:59;0.20;99.90
18880;DHT22;9572;52.378;13.404;2024-01-06T13:01:26;0.30;99.90
18880;DHT22;9572;52.378;13.404;2024-01-06T13:03:53;0.30;99.90
18880;DHT22;9572;52.378;13.404;2024-01-06T13:06:20;0.20;99.90
18880;DHT22;9572;52.378;13.404;2024-01-06T13:08:47;0.20;99.90
18880;DHT22;9572;52.378;13.404;2024-01-06T13:11:16;0.20;99.90
18880;DHT22;9572;52.378;13.404;2024-01-06T13:13:43;0.30;99.90
18880;DHT22;9572;52.378;13.404;2024-01-06T13:16:10;0.20;99.90
18880;DHT22;9572;52.378;13.404;2024-01-06T13:18:37;0.30;99.90
18880;DHT22;9572;52.378;13.404;2024-01-06T13:21:04;0.30;99.90
18880;DHT22;9572;52.378;13.404;2024-01-06T13:23:31;0.30;99.90
18880;DHT22;9572;52.378;13.404;2024-01-06T13:25:58;0.20;99.90
18880;DHT22;9572;52.378;13.404;2024-01-06T13:28:27;0.30;99.90
18880;DHT22;9572;52.378;13.404;2024-01-06T13:30:53;0.20;99.90
18880;DHT22;9572;52.378;13.404;2024-01-06T13:33:20;0.30;99.90
18880;DHT22;9572;52.378;13.404;2024-01-06T13:35:48;0.20;99.90
18880;DHT22;9572;52.378;13.404;2024-01-06T13:38:15;0.20;99.90
18880;DHT22;9572;52.378;13.404;2024-01-06T13:40:42;0.10;99.90
18880;DHT22;9572;52.378;13.404;2024-01-06T13:43:09;0.10;99.90
18880;DHT22;9572;52.378;13.404;2024-01-06T13:45:42;0.10;99.90
18880;DHT22;9572;52.378;13.404;2024-01-06T13:48:10;0.10;99.90
18880;DHT22;9572;52.378;13.404;2024-01-06T13:50:37;0.10;99.90
18880;DHT22;9572;52.378;13.404;2024-01-06T13:53:04;0.10;99.90
18880;DHT22;9572;52.378;13.404;2024-01-06T13:55:32;0.00;99.90
18880;DHT22;9572;52.378;13.404;2024-01-06T13:57:59;0.00;99.90
18880;DHT22;9572;52.378;13.404;2024-01-06T14:00:26;0.10;99.90
18880;DHT22;9572;52.378;13.404;2024-01-06T14:02:55;0.10;99.90
18880;DHT22;9572;52.378;13.404;2024-01-06T14:05:23;0.10;99.90
18880;DHT22;9572;52.378;13.404;2024-01-06T14:07:50;0.20;99.90
18880;DHT22;9572;52.378;13.404;2024-01-06T14:10:16;0.20;99.90
18880;DHT22;9572;52.378;13.404;2024-01-06T14:12:43;0.10;99.90
18880;DHT22;9572;52.378;13.404;2024-01-06T14:15:10;0.10;99.90
18880;DHT22;9572;52.378;13.404;2024-01-06T14:17:37;0.10;99.90
18880;DHT22;9572;52.378;13.404;2024-01-06T14:20:08;0.10;99.90
18880;DHT22;9572;52.378;13.404;2024-01-06T14:22:38;0.10;99.90
18880;DHT22;9572;52.378;13.404;2024-01-06T14:25:06;0.10;99.90
18880;DHT22;9572;52.378;13.404;2024-01-06T14:27:33;0.00;99.90
18880;DHT22;9572;52.378;13.404;2024-01-06T14:30:00;0.10;99.90
18880;DHT22;9572;52.378;13.404;2024-01-06T14:32:27;0.10;99.90
18880;DHT22;9572;52.378;13.404;2024-01-06T14:34:54;0.10;99.90
18880;DHT22;9572;52.378;13.404;2024-01-06T14:37:23;0.10;99.90
18880;DHT22;9572;52.378;13.404;2024-01-06T14:39:49;0.10;99.90
18880;DHT22;9572;52.378;13.404;2024-01-06T14:42:16;0.10;99.90
18880;DHT22;9572;52.378;13.404;2024-01-06T14:44:44;0.20;99.90
18880;DHT22;9572;52.378;13.404;2024-01-06T14:47:11;0.20;99.90
18880;DHT22;9572;52.378;13.404;2024-01-06T14:49:39;0.20;99.90
18880;DHT22;9572;52.378;13.404;2024-01-06T14:52:06;0.20;99.90
18880;DHT22;9572;52.378;13.404;2024-01-06T14:54:36;0.20;99.90
18880;DHT22;9572;52.378;13.404;2024-01-06T14:57:03;0.20;99.90
18880;DHT22;9572;52.378;13.404;2024-01-06T14:59:30;0.20;99.90
18880;DHT22;9572;52.378;13.404;2024-01-06T15:01:57;0.20;99.90
18880;DHT22;9572;52.378;13.404;2024-01-06T15:04:24;0.10;99.90
18880;DHT22;9572;52.378;13.404;2024-01-06T15:06:51;0.20;99.90
18880;DHT22;9572;52.378;13.404;2024-01-06T15:09:18;0.10;99.90
18880;DHT22;9572;52.378;13.404;2024-01-06T15:11:47;0.10;99.90
18880;DHT22;9572;52.378;13.404;2024-01-06T15:14:14;0.10;99.90
18880;DHT22;9572;52.378;13.404;2024-01-06T15:16:40;0.00;99.90
18880;DHT22;9572;52.378;13.404;2024-01-06T15:19:07;0.10;99.90
18880;DHT22;9572;52.378;13.404;2024-01-06T15:21:34;0.10;99.90
18880;DHT22;9572;52.378;13.404;2024-01-06T15:24:02;0.10;99.90
18880;DHT22;9572;52.378;13.404;2024-01-06T15:26:29;0.00;99.90
18880;DHT22;9572;52.378;13.404;2024-01-06T15:28:57;0.10;99.90
18880;DHT22;9572;52.378;13.404;2024-01-06T15:31:26;0.00;99.90
18880;DHT22;9572;52.378;13.404;2024-01-06T15:33:53;0.00;99.90
18880;DHT22;9572;52.378;13.404;2024-01-06T15:36:20;0.10;99.90
18880;DHT22;9572;52.378;13.404;2024-01-06T15:38:47;0.10;99.90
18880;DHT22;9572;52.378;13.404;2024-01-06T15:41:15;0.10;99.90
18880;DHT22;9572;52.378;13.404;2024-01-06T15:43:41;0.20;99.90
18880;DHT22;9572;52.378;13.404;2024-01-06T15:46:10;0.20;99.90
18880;DHT22;9572;52.378;13.404;2024-01-06T15:48:38;0.20;99.90